sensor_id;sensor_type;location;lat;lon;timestamp;temperature;humidity
19037;DHT22;9651;49.138;8.900;2022-12-07T00:03:55;4.50;99.90
19037;DHT22;9651;49.138;8.900;2022-12-07T00:08:01;4.40;99.90
19037;DHT22;9651;49.138;8.900;2022-12-07T00:12:03;4.40;99.90
19037;DHT22;9651;49.138;8.900;2022-12-07T00:16:07;4.40;99.90
19037;DHT22;9651;49.138;8.900;2022-12-07T00:20:11;4.30;99.90
19037;DHT22;9651;49.138;8.900;2022-12-07T00:24:13;4.30;99.90
19037;DHT22;9651;49.138;8.900;2022-12-07T00:28:15;4.20;99.90
19037;DHT22;9651;49.138;8.900;2022-12-07T00:32:17;4.30;99.90
19037;DHT22;9651;49.138;8.900;2022-12-07T00:36:22;4.20;99.90
19037;DHT22;9651;49.138;8.900;2022-12-07T00:40:24;4.20;99.90
19037;DHT22;9651;49.138;8.900;2022-12-07T00:44:26;4.20;99.90
19037;DHT22;9651;49.138;8.900;2022-12-07T00:48:28;4.20;99.90
19037;DHT22;9651;49.138;8.900;2022-12-07T00:52:32;4.20;99.90
19037;DHT22;9651;49.138;8.900;2022-12-07T00:56:34;4.20;99.90
19037;DHT22;9651;49.138;8.900;2022-12-07T01:00:38;4.10;99.90
19037;DHT22;9651;49.138;8.900;2022-12-07T01:04:40;4.10;99.90
19037;DHT22;9651;49.138;8.900;2022-12-07T01:08:44;4.10;99.90
19037;DHT22;9651;49.138;8.900;2022-12-07T01:12:46;4.10;99.90
19037;DHT22;9651;49.138;8.900;2022-12-07T01:16:48;4.10;99.90
19037;DHT22;9651;49.138;8.900;2022-12-07T01:20:57;4.00;99.90
19037;DHT22;9651;49.138;8.900;2022-12-07T01:25:01;4.10;99.90
19037;DHT22;9651;49.138;8.900;2022-12-07T01:29:03;4.00;99.90
19037;DHT22;9651;49.138;8.900;2022-12-07T01:33:05;4.00;99.90
19037;DHT22;9651;49.138;8.900;2022-12-07T01:37:07;4.10;99.90
19037;DHT22;9651;49.138;8.900;2022-12-07T01:41:11;4.00;99.90
19037;DHT22;9651;49.138;8.900;2022-12-07T01:45:37;4.00;99.90
19037;DHT22;9651;49.138;8.900;2022-12-07T01:49:42;4.00;99.90
19037;DHT22;9651;49.138;8.900;2022-12-07T01:53:45;4.00;99.90
19037;DHT22;9651;49.138;8.900;2022-12-07T01:57:50;4.00;99.90
19037;DHT22;9651;49.138;8.900;2022-12-07T02:01:53;4.00;99.90
19037;DHT22;9651;49.138;8.900;2022-12-07T02:05:56;3.90;99.90
19037;DHT22;9651;49.138;8.900;2022-12-07T02:10:12;3.90;99.90
19037;DHT22;9651;49.138;8.900;2022-12-07T02:14:16;3.90;99.90
19037;DHT22;9651;49.138;8.900;2022-12-07T02:18:23;3.90;99.90
19037;DHT22;9651;49.138;8.900;2022-12-07T02:22:43;3.90;99.90
19037;DHT22;9651;49.138;8.900;2022-12-07T02:27:26;3.90;99.90
19037;DHT22;9651;49.138;8.900;2022-12-07T02:31:32;3.90;99.90
19037;DHT22;9651;49.138;8.900;2022-12-07T02:35:37;3.90;99.90
19037;DHT22;9651;49.138;8.900;2022-12-07T02:39:43;4.00;99.90
19037;DHT22;9651;49.138;8.900;2022-12-07T02:43:48;4.00;99.90
19037;DHT22;9651;49.138;8.900;2022-12-07T02:47:56;4.10;99.90
19037;DHT22;9651;49.138;8.900;2022-12-07T02:51:59;4.00;99.90
19037;DHT22;9651;49.138;8.900;2022-12-07T02:56:05;4.00;99.90
19037;DHT22;9651;49.138;8.900;2022-12-07T03:00:09;4.00;99.90
19037;DHT22;9651;49.138;8.900;2022-12-07T03:04:23;4.00;99.90
19037;DHT22;9651;49.138;8.900;2022-12-07T03:08:32;3.90;99.90
19037;DHT22;9651;49.138;8.900;2022-12-07T03:12:44;3.90;99.90
19037;DHT22;9651;49.138;8.900;2022-12-07T03:16:52;3.80;99.90
19037;DHT22;9651;49.138;8.900;2022-12-07T03:20:58;3.90;99.90
19037;DHT22;9651;49.138;8.900;2022-12-07T03:25:05;4.00;99.90
19037;DHT22;9651;49.138;8.900;2022-12-07T03:29:13;4.00;99.90
19037;DHT22;9651;49.138;8.900;2022-12-07T03:33:21;3.90;99.90
19037;DHT22;9651;49.138;8.900;2022-12-07T03:37:33;3.80;99.90
19037;DHT22;9651;49.138;8.900;2022-12-07T03:41:36;3.80;99.90
19037;DHT22;9651;49.138;8.900;2022-12-07T03:45:41;3.80;99.90
19037;DHT22;9651;49.138;8.900;2022-12-07T03:49:48;3.80;99.90
19037;DHT22;9651;49.138;8.900;2022-12-07T03:53:54;3.80;99.90
19037;DHT22;9651;49.138;8.900;2022-12-07T03:58:03;3.80;99.90
19037;DHT22;9651;49.138;8.900;2022-12-07T04:02:07;3.80;99.90
19037;DHT22;9651;49.138;8.900;2022-12-07T04:06:09;3.80;99.90
19037;DHT22;9651;49.138;8.900;2022-12-07T04:10:12;3.80;99.90
19037;DHT22;9651;49.138;8.900;2022-12-07T04:14:14;3.80;99.90
19037;DHT22;9651;49.138;8.900;2022-12-07T04:18:22;3.80;99.90
19037;DHT22;9651;49.138;8.900;2022-12-07T04:22:24;3.80;99.90
19037;DHT22;9651;49.138;8.900;2022-12-07T04:26:27;3.70;99.90
19037;DHT22;9651;49.138;8.900;2022-12-07T04:30:29;3.70;99.90
19037;DHT22;9651;49.138;8.900;2022-12-07T04:34:30;3.70;99.90
19037;DHT22;9651;49.138;8.900;2022-12-07T04:38:32;3.70;99.90
19037;DHT22;9651;49.138;8.900;2022-12-07T04:42:36;3.70;99.90
19037;DHT22;9651;49.138;8.900;2022-12-07T04:46:38;3.70;99.90
19037;DHT22;9651;49.138;8.900;2022-12-07T04:50:39;3.70;99.90
19037;DHT22;9651;49.138;8.900;2022-12-07T04:54:41;3.70;99.90
19037;DHT22;9651;49.138;8.900;2022-12-07T04:58:46;3.70;99.90
19037;DHT22;9651;49.138;8.900;2022-12-07T05:02:48;3.60;99.90
19037;DHT22;9651;49.138;8.900;2022-12-07T05:06:50;3.60;99.90
19037;DHT22;9651;49.138;8.900;2022-12-07T05:10:52;3.60;99.90
19037;DHT22;9651;49.138;8.900;2022-12-07T05:14:55;3.70;99.90
19037;DHT22;9651;49.138;8.900;2022-12-07T05:18:57;3.70;99.90
19037;DHT22;9651;49.138;8.900;2022-12-07T05:22:59;3.60;99.90
19037;DHT22;9651;49.138;8.900;2022-12-07T05:27:02;3.70;99.90
19037;DHT22;9651;49.138;8.900;2022-12-07T05:31:05;3.60;99.90
19037;DHT22;9651;49.138;8.900;2022-12-07T05:35:07;3.60;99.90
19037;DHT22;9651;49.138;8.900;2022-12-07T05:39:10;3.60;99.90
19037;DHT22;9651;49.138;8.900;2022-12-07T05:43:12;3.60;99.90
19037;DHT22;9651;49.138;8.900;2022-12-07T05:47:15;3.60;99.90
19037;DHT22;9651;49.138;8.900;2022-12-07T05:51:17;3.60;99.90
19037;DHT22;9651;49.138;8.900;2022-12-07T05:55:20;3.50;99.90
19037;DHT22;9651;49.138;8.900;2022-12-07T05:59:22;3.50;99.90
19037;DHT22;9651;49.138;8.900;2022-12-07T06:03:25;3.50;99.90
19037;DHT22;9651;49.138;8.900;2022-12-07T06:07:27;3.50;99.90
19037;DHT22;9651;49.138;8.900;2022-12-07T06:11:28;3.50;99.90
19037;DHT22;9651;49.138;8.900;2022-12-07T06:15:48;3.50;99.90
19037;DHT22;9651;49.138;8.900;2022-12-07T06:19:51;3.50;99.90
19037;DHT22;9651;49.138;8.900;2022-12-07T06:23:53;3.60;99.90
19037;DHT22;9651;49.138;8.900;2022-12-07T06:27:55;3.60;99.90
19037;DHT22;9651;49.138;8.900;2022-12-07T06:31:57;3.70;99.90
19037;DHT22;9651;49.138;8.900;2022-12-07T06:36:00;3.70;99.90
19037;DHT22;9651;49.138;8.900;2022-12-07T06:40:02;3.70;99.90
19037;DHT22;9651;49.138;8.900;2022-12-07T06:44:05;3.70;99.90
19037;DHT22;9651;49.138;8.900;2022-12-07T06:48:07;3.70;99.90
19037;DHT22;9651;49.138;8.900;2022-12-07T06:52:10;3.60;99.90
19037;DHT22;9651;49.138;8.900;2022-12-07T06:56:12;3.50;99.90
19037;DHT22;9651;49.138;8.900;2022-12-07T07:00:14;3.40;99.90
19037;DHT22;9651;49.138;8.900;2022-12-07T07:04:16;3.40;99.90
19037;DHT22;9651;49.138;8.900;2022-12-07T07:08:20;3.40;99.90
19037;DHT22;9651;49.138;8.900;2022-12-07T07:12:21;3.40;99.90
19037;DHT22;9651;49.138;8.900;2022-12-07T07:16:23;3.40;99.90
19037;DHT22;9651;49.138;8.900;2022-12-07T07:20:25;3.40;99.90
19037;DHT22;9651;49.138;8.900;2022-12-07T07:24:29;3.40;99.90
19037;DHT22;9651;49.138;8.900;2022-12-07T07:28:31;3.40;99.90
19037;DHT22;9651;49.138;8.900;2022-12-07T07:32:33;3.40;99.90
19037;DHT22;9651;49.138;8.900;2022-12-07T07:36:34;3.40;99.90
19037;DHT22;9651;49.138;8.900;2022-12-07T07:40:38;3.40;99.90
19037;DHT22;9651;49.138;8.900;2022-12-07T07:44:39;3.40;99.90
19037;DHT22;9651;49.138;8.900;2022-12-07T07:48:41;3.30;99.90
19037;DHT22;9651;49.138;8.900;2022-12-07T07:52:44;3.20;99.90
19037;DHT22;9651;49.138;8.900;2022-12-07T07:56:47;3.20;99.90
19037;DHT22;9651;49.138;8.900;2022-12-07T08:00:49;3.20;99.90
19037;DHT22;9651;49.138;8.900;2022-12-07T08:04:50;3.30;99.90
19037;DHT22;9651;49.138;8.900;2022-12-07T08:08:52;3.40;99.90
19037;DHT22;9651;49.138;8.900;2022-12-07T08:12:56;3.50;99.90
19037;DHT22;9651;49.138;8.900;2022-12-07T08:17:14;3.60;99.90
19037;DHT22;9651;49.138;8.900;2022-12-07T08:21:16;3.60;99.90
19037;DHT22;9651;49.138;8.900;2022-12-07T08:25:18;3.80;99.90
19037;DHT22;9651;49.138;8.900;2022-12-07T08:29:21;3.90;99.90
19037;DHT22;9651;49.138;8.900;2022-12-07T08:33:23;4.00;99.90
19037;DHT22;9651;49.138;8.900;2022-12-07T08:37:25;4.00;99.90
19037;DHT22;9651;49.138;8.900;2022-12-07T08:41:27;4.10;99.90
19037;DHT22;9651;49.138;8.900;2022-12-07T08:45:31;4.20;99.90
19037;DHT22;9651;49.138;8.900;2022-12-07T08:49:38;4.20;99.90
19037;DHT22;9651;49.138;8.900;2022-12-07T08:53:41;4.30;99.90
19037;DHT22;9651;49.138;8.900;2022-12-07T08:57:44;4.40;99.90
19037;DHT22;9651;49.138;8.900;2022-12-07T09:01:48;4.40;99.90
19037;DHT22;9651;49.138;8.900;2022-12-07T09:05:50;4.60;99.90
19037;DHT22;9651;49.138;8.900;2022-12-07T09:09:52;4.60;99.90
19037;DHT22;9651;49.138;8.900;2022-12-07T09:13:54;4.80;99.90
19037;DHT22;9651;49.138;8.900;2022-12-07T09:17:57;4.80;99.90
19037;DHT22;9651;49.138;8.900;2022-12-07T09:21:59;4.80;99.90
19037;DHT22;9651;49.138;8.900;2022-12-07T09:26:01;4.80;99.90
19037;DHT22;9651;49.138;8.900;2022-12-07T09:30:04;4.90;99.90
19037;DHT22;9651;49.138;8.900;2022-12-07T09:34:08;4.90;99.90
19037;DHT22;9651;49.138;8.900;2022-12-07T09:38:10;5.10;99.90
19037;DHT22;9651;49.138;8.900;2022-12-07T09:42:24;5.20;99.90
19037;DHT22;9651;49.138;8.900;2022-12-07T09:46:28;5.30;99.90
19037;DHT22;9651;49.138;8.900;2022-12-07T09:50:33;5.50;99.90
19037;DHT22;9651;49.138;8.900;2022-12-07T09:54:36;5.50;99.90
19037;DHT22;9651;49.138;8.900;2022-12-07T09:58:40;5.40;99.90
19037;DHT22;9651;49.138;8.900;2022-12-07T10:02:43;5.40;99.90
19037;DHT22;9651;49.138;8.900;2022-12-07T10:06:48;5.40;99.90
19037;DHT22;9651;49.138;8.900;2022-12-07T10:10:52;5.60;99.90
19037;DHT22;9651;49.138;8.900;2022-12-07T10:14:59;5.50;99.90
19037;DHT22;9651;49.138;8.900;2022-12-07T10:19:19;5.60;99.90
19037;DHT22;9651;49.138;8.900;2022-12-07T10:23:22;5.60;99.90
19037;DHT22;9651;49.138;8.900;2022-12-07T10:27:30;5.60;99.90
19037;DHT22;9651;49.138;8.900;2022-12-07T10:31:32;5.80;99.90
19037;DHT22;9651;49.138;8.900;2022-12-07T10:35:42;5.80;99.90
19037;DHT22;9651;49.138;8.900;2022-12-07T10:39:48;5.90;99.90
19037;DHT22;9651;49.138;8.900;2022-12-07T10:43:52;5.90;99.90
19037;DHT22;9651;49.138;8.900;2022-12-07T10:48:00;6.00;99.90
19037;DHT22;9651;49.138;8.900;2022-12-07T10:52:10;6.20;99.90
19037;DHT22;9651;49.138;8.900;2022-12-07T10:56:29;6.30;99.90
19037;DHT22;9651;49.138;8.900;2022-12-07T11:00:39;6.20;99.90
19037;DHT22;9651;49.138;8.900;2022-12-07T11:04:52;6.10;99.90
19037;DHT22;9651;49.138;8.900;2022-12-07T11:09:04;6.00;99.90
19037;DHT22;9651;49.138;8.900;2022-12-07T11:13:35;5.90;99.90
19037;DHT22;9651;49.138;8.900;2022-12-07T11:17:45;6.00;99.90
19037;DHT22;9651;49.138;8.900;2022-12-07T11:21:55;6.10;99.90
19037;DHT22;9651;49.138;8.900;2022-12-07T11:26:02;6.20;99.90
19037;DHT22;9651;49.138;8.900;2022-12-07T11:30:16;6.10;99.90
19037;DHT22;9651;49.138;8.900;2022-12-07T11:34:26;6.10;99.90
19037;DHT22;9651;49.138;8.900;2022-12-07T11:38:38;6.00;99.90
19037;DHT22;9651;49.138;8.900;2022-12-07T11:42:48;6.00;99.90
19037;DHT22;9651;49.138;8.900;2022-12-07T11:46:59;6.00;99.90
19037;DHT22;9651;49.138;8.900;2022-12-07T11:51:07;6.00;99.90
19037;DHT22;9651;49.138;8.900;2022-12-07T11:55:19;6.20;99.90
19037;DHT22;9651;49.138;8.900;2022-12-07T11:59:25;6.20;99.90
19037;DHT22;9651;49.138;8.900;2022-12-07T12:03:35;6.20;99.90
19037;DHT22;9651;49.138;8.900;2022-12-07T12:07:39;6.20;99.90
19037;DHT22;9651;49.138;8.900;2022-12-07T12:11:57;6.30;99.90
19037;DHT22;9651;49.138;8.900;2022-12-07T12:16:18;6.20;99.90
19037;DHT22;9651;49.138;8.900;2022-12-07T12:20:28;6.10;99.90
19037;DHT22;9651;49.138;8.900;2022-12-07T12:24:32;6.30;99.90
19037;DHT22;9651;49.138;8.900;2022-12-07T12:28:40;6.40;99.90
19037;DHT22;9651;49.138;8.900;2022-12-07T12:32:43;6.50;99.90
19037;DHT22;9651;49.138;8.900;2022-12-07T12:36:47;6.60;99.90
19037;DHT22;9651;49.138;8.900;2022-12-07T12:40:49;6.60;99.90
19037;DHT22;9651;49.138;8.900;2022-12-07T12:45:19;6.60;99.90
19037;DHT22;9651;49.138;8.900;2022-12-07T12:49:34;6.80;99.90
19037;DHT22;9651;49.138;8.900;2022-12-07T12:53:37;6.80;99.90
19037;DHT22;9651;49.138;8.900;2022-12-07T12:57:39;6.80;99.90
19037;DHT22;9651;49.138;8.900;2022-12-07T13:01:45;6.70;99.90
19037;DHT22;9651;49.138;8.900;2022-12-07T13:05:48;6.50;99.90
19037;DHT22;9651;49.138;8.900;2022-12-07T13:09:51;6.50;99.90
19037;DHT22;9651;49.138;8.900;2022-12-07T13:18:35;6.40;99.90
19037;DHT22;9651;49.138;8.900;2022-12-07T13:22:51;6.30;99.90
19037;DHT22;9651;49.138;8.900;2022-12-07T13:26:56;6.40;99.90
19037;DHT22;9651;49.138;8.900;2022-12-07T13:31:15;6.40;99.90
19037;DHT22;9651;49.138;8.900;2022-12-07T13:35:32;6.40;99.90
19037;DHT22;9651;49.138;8.900;2022-12-07T13:39:35;6.30;99.90
19037;DHT22;9651;49.138;8.900;2022-12-07T13:43:50;6.30;99.90
19037;DHT22;9651;49.138;8.900;2022-12-07T13:47:54;6.20;99.90
19037;DHT22;9651;49.138;8.900;2022-12-07T13:52:13;6.10;99.90
19037;DHT22;9651;49.138;8.900;2022-12-07T13:56:16;6.00;99.90
19037;DHT22;9651;49.138;8.900;2022-12-07T14:00:21;6.10;99.90
19037;DHT22;9651;49.138;8.900;2022-12-07T14:04:31;6.00;99.90
19037;DHT22;9651;49.138;8.900;2022-12-07T14:08:33;6.00;99.90
19037;DHT22;9651;49.138;8.900;2022-12-07T14:12:36;6.00;99.90
19037;DHT22;9651;49.138;8.900;2022-12-07T14:16:39;5.90;99.90
19037;DHT22;9651;49.138;8.900;2022-12-07T14:20:42;5.80;99.90
19037;DHT22;9651;49.138;8.900;2022-12-07T14:24:44;5.80;99.90
19037;DHT22;9651;49.138;8.900;2022-12-07T14:28:47;5.80;99.90
19037;DHT22;9651;49.138;8.900;2022-12-07T14:32:52;5.80;99.90
19037;DHT22;9651;49.138;8.900;2022-12-07T14:36:54;5.80;99.90
19037;DHT22;9651;49.138;8.900;2022-12-07T14:40:56;5.70;99.90
19037;DHT22;9651;49.138;8.900;2022-12-07T14:45:21;5.60;99.90
19037;DHT22;9651;49.138;8.900;2022-12-07T14:49:24;5.60;99.90
19037;DHT22;9651;49.138;8.900;2022-12-07T14:53:30;5.60;99.90
19037;DHT22;9651;49.138;8.900;2022-12-07T14:57:33;5.60;99.90
19037;DHT22;9651;49.138;8.900;2022-12-07T15:01:35;5.50;99.90
19037;DHT22;9651;49.138;8.900;2022-12-07T15:05:38;5.50;99.90
19037;DHT22;9651;49.138;8.900;2022-12-07T15:09:41;5.50;99.90
19037;DHT22;9651;49.138;8.900;2022-12-07T15:13:43;5.40;99.90
19037;DHT22;9651;49.138;8.900;2022-12-07T15:18:02;5.30;99.90
19037;DHT22;9651;49.138;8.900;2022-12-07T15:22:05;5.30;99.90
19037;DHT22;9651;49.138;8.900;2022-12-07T15:26:07;5.30;99.90
19037;DHT22;9651;49.138;8.900;2022-12-07T15:30:11;5.30;99.90
19037;DHT22;9651;49.138;8.900;2022-12-07T15:34:13;5.20;99.90
19037;DHT22;9651;49.138;8.900;2022-12-07T15:38:16;5.10;99.90
19037;DHT22;9651;49.138;8.900;2022-12-07T15:42:18;5.10;99.90
19037;DHT22;9651;49.138;8.900;2022-12-07T15:46:20;5.10;99.90
19037;DHT22;9651;49.138;8.900;2022-12-07T15:50:25;5.10;99.90
19037;DHT22;9651;49.138;8.900;2022-12-07T15:54:29;5.10;99.90
19037;DHT22;9651;49.138;8.900;2022-12-07T15:58:31;5.10;99.90
19037;DHT22;9651;49.138;8.900;2022-12-07T16:02:33;5.00;99.90
19037;DHT22;9651;49.138;8.900;2022-12-07T16:06:36;5.00;99.90
19037;DHT22;9651;49.138;8.900;2022-12-07T16:10:42;4.90;99.90
19037;DHT22;9651;49.138;8.900;2022-12-07T16:14:44;4.90;99.90
19037;DHT22;9651;49.138;8.900;2022-12-07T16:18:50;4.90;99.90
19037;DHT22;9651;49.138;8.900;2022-12-07T16:22:52;4.90;99.90
19037;DHT22;9651;49.138;8.900;2022-12-07T16:26:56;4.80;99.90
19037;DHT22;9651;49.138;8.900;2022-12-07T16:31:02;4.80;99.90
19037;DHT22;9651;49.138;8.900;2022-12-07T16:35:05;4.80;99.90
19037;DHT22;9651;49.138;8.900;2022-12-07T16:39:08;4.70;99.90
19037;DHT22;9651;49.138;8.900;2022-12-07T16:43:13;4.80;99.90
19037;DHT22;9651;49.138;8.900;2022-12-07T16:47:15;4.80;99.90
19037;DHT22;9651;49.138;8.900;2022-12-07T16:51:17;4.90;99.90
19037;DHT22;9651;49.138;8.900;2022-12-07T16:55:19;5.00;99.90
19037;DHT22;9651;49.138;8.900;2022-12-07T16:59:22;5.10;99.90
19037;DHT22;9651;49.138;8.900;2022-12-07T17:03:24;5.10;99.90
19037;DHT22;9651;49.138;8.900;2022-12-07T17:07:26;5.00;99.90
19037;DHT22;9651;49.138;8.900;2022-12-07T17:11:29;5.10;99.90
19037;DHT22;9651;49.138;8.900;2022-12-07T17:15:33;5.20;99.90
19037;DHT22;9651;49.138;8.900;2022-12-07T17:19:35;5.10;99.90
19037;DHT22;9651;49.138;8.900;2022-12-07T17:23:37;4.90;99.90
19037;DHT22;9651;49.138;8.900;2022-12-07T17:27:39;4.90;99.90
19037;DHT22;9651;49.138;8.900;2022-12-07T17:31:42;4.70;99.90
19037;DHT22;9651;49.138;8.900;2022-12-07T17:35:44;4.60;99.90
19037;DHT22;9651;49.138;8.900;2022-12-07T17:39:46;4.60;99.90
19037;DHT22;9651;49.138;8.900;2022-12-07T17:43:48;4.50;99.90
19037;DHT22;9651;49.138;8.900;2022-12-07T17:47:51;4.50;99.90
19037;DHT22;9651;49.138;8.900;2022-12-07T17:51:53;4.40;99.90
19037;DHT22;9651;49.138;8.900;2022-12-07T17:56:13;4.40;99.90
19037;DHT22;9651;49.138;8.900;2022-12-07T18:00:15;4.50;99.90
19037;DHT22;9651;49.138;8.900;2022-12-07T18:04:19;4.50;99.90
19037;DHT22;9651;49.138;8.900;2022-12-07T18:08:21;4.50;99.90
19037;DHT22;9651;49.138;8.900;2022-12-07T18:12:23;4.50;99.90
19037;DHT22;9651;49.138;8.900;2022-12-07T18:16:26;4.50;99.90
19037;DHT22;9651;49.138;8.900;2022-12-07T18:20:30;4.50;99.90
19037;DHT22;9651;49.138;8.900;2022-12-07T18:24:32;4.50;99.90
19037;DHT22;9651;49.138;8.900;2022-12-07T18:28:34;4.40;99.90
19037;DHT22;9651;49.138;8.900;2022-12-07T18:32:36;4.40;99.90
19037;DHT22;9651;49.138;8.900;2022-12-07T18:36:40;4.40;99.90
19037;DHT22;9651;49.138;8.900;2022-12-07T18:40:43;4.40;99.90
19037;DHT22;9651;49.138;8.900;2022-12-07T18:44:45;4.40;99.90
19037;DHT22;9651;49.138;8.900;2022-12-07T18:48:48;4.40;99.90
19037;DHT22;9651;49.138;8.900;2022-12-07T18:52:51;4.40;99.90
19037;DHT22;9651;49.138;8.900;2022-12-07T18:56:53;4.40;99.90
19037;DHT22;9651;49.138;8.900;2022-12-07T19:00:56;4.30;99.90
19037;DHT22;9651;49.138;8.900;2022-12-07T19:04:58;4.30;99.90
19037;DHT22;9651;49.138;8.900;2022-12-07T19:09:03;4.30;99.90
19037;DHT22;9651;49.138;8.900;2022-12-07T19:13:05;4.30;99.90
19037;DHT22;9651;49.138;8.900;2022-12-07T19:17:09;4.30;99.90
19037;DHT22;9651;49.138;8.900;2022-12-07T19:21:11;4.20;99.90
19037;DHT22;9651;49.138;8.900;2022-12-07T19:25:15;4.20;99.90
19037;DHT22;9651;49.138;8.900;2022-12-07T19:29:17;4.20;99.90
19037;DHT22;9651;49.138;8.900;2022-12-07T19:33:19;4.20;99.90
19037;DHT22;9651;49.138;8.900;2022-12-07T19:37:21;4.20;99.90
19037;DHT22;9651;49.138;8.900;2022-12-07T19:41:24;4.20;99.90
19037;DHT22;9651;49.138;8.900;2022-12-07T19:45:34;4.30;99.90
19037;DHT22;9651;49.138;8.900;2022-12-07T19:49:36;4.30;99.90
19037;DHT22;9651;49.138;8.900;2022-12-07T19:53:38;4.30;99.90
19037;DHT22;9651;49.138;8.900;2022-12-07T19:57:41;4.20;99.90
19037;DHT22;9651;49.138;8.900;2022-12-07T20:01:43;4.10;99.90
19037;DHT22;9651;49.138;8.900;2022-12-07T20:05:45;4.00;99.90
19037;DHT22;9651;49.138;8.900;2022-12-07T20:09:47;3.90;99.90
19037;DHT22;9651;49.138;8.900;2022-12-07T20:13:50;3.80;99.90
19037;DHT22;9651;49.138;8.900;2022-12-07T20:17:52;3.70;99.90
19037;DHT22;9651;49.138;8.900;2022-12-07T20:21:54;3.60;99.90
19037;DHT22;9651;49.138;8.900;2022-12-07T20:26:00;3.60;99.90
19037;DHT22;9651;49.138;8.900;2022-12-07T20:30:05;3.60;99.90
19037;DHT22;9651;49.138;8.900;2022-12-07T20:34:08;3.60;99.90
19037;DHT22;9651;49.138;8.900;2022-12-07T20:38:11;3.60;99.90
19037;DHT22;9651;49.138;8.900;2022-12-07T20:42:13;3.70;99.90
19037;DHT22;9651;49.138;8.900;2022-12-07T20:46:33;3.70;99.90
19037;DHT22;9651;49.138;8.900;2022-12-07T20:50:35;3.70;99.90
19037;DHT22;9651;49.138;8.900;2022-12-07T20:54:37;3.70;99.90
19037;DHT22;9651;49.138;8.900;2022-12-07T20:58:39;3.60;99.90
19037;DHT22;9651;49.138;8.900;2022-12-07T21:02:42;3.60;99.90
19037;DHT22;9651;49.138;8.900;2022-12-07T21:06:44;3.60;99.90
19037;DHT22;9651;49.138;8.900;2022-12-07T21:10:46;3.60;99.90
19037;DHT22;9651;49.138;8.900;2022-12-07T21:14:48;3.60;99.90
19037;DHT22;9651;49.138;8.900;2022-12-07T21:18:52;3.60;99.90
19037;DHT22;9651;49.138;8.900;2022-12-07T21:22:55;3.60;99.90
19037;DHT22;9651;49.138;8.900;2022-12-07T21:26:56;3.60;99.90
19037;DHT22;9651;49.138;8.900;2022-12-07T21:30:58;3.60;99.90
19037;DHT22;9651;49.138;8.900;2022-12-07T21:35:02;3.50;99.90
19037;DHT22;9651;49.138;8.900;2022-12-07T21:39:04;3.50;99.90
19037;DHT22;9651;49.138;8.900;2022-12-07T21:43:06;3.50;99.90
19037;DHT22;9651;49.138;8.900;2022-12-07T21:47:08;3.50;99.90
19037;DHT22;9651;49.138;8.900;2022-12-07T21:51:12;3.40;99.90
19037;DHT22;9651;49.138;8.900;2022-12-07T21:55:14;3.30;99.90
19037;DHT22;9651;49.138;8.900;2022-12-07T21:59:16;3.30;99.90
19037;DHT22;9651;49.138;8.900;2022-12-07T22:03:20;3.20;99.90
19037;DHT22;9651;49.138;8.900;2022-12-07T22:07:23;3.10;99.90
19037;DHT22;9651;49.138;8.900;2022-12-07T22:11:25;3.00;99.90
19037;DHT22;9651;49.138;8.900;2022-12-07T22:15:28;2.90;99.90
19037;DHT22;9651;49.138;8.900;2022-12-07T22:19:30;2.80;99.90
19037;DHT22;9651;49.138;8.900;2022-12-07T22:23:33;2.70;99.90
19037;DHT22;9651;49.138;8.900;2022-12-07T22:27:35;2.60;99.90
19037;DHT22;9651;49.138;8.900;2022-12-07T22:31:37;2.60;99.90
19037;DHT22;9651;49.138;8.900;2022-12-07T22:35:40;2.50;99.90
19037;DHT22;9651;49.138;8.900;2022-12-07T22:39:45;2.40;99.90
19037;DHT22;9651;49.138;8.900;2022-12-07T22:43:47;2.30;99.90
19037;DHT22;9651;49.138;8.900;2022-12-07T22:47:49;2.30;99.90
19037;DHT22;9651;49.138;8.900;2022-12-07T22:51:51;2.20;99.90
19037;DHT22;9651;49.138;8.900;2022-12-07T22:55:54;2.20;99.90
19037;DHT22;9651;49.138;8.900;2022-12-07T22:59:56;2.20;99.90
19037;DHT22;9651;49.138;8.900;2022-12-07T23:03:58;2.10;99.90
19037;DHT22;9651;49.138;8.900;2022-12-07T23:07:59;2.10;99.90
19037;DHT22;9651;49.138;8.900;2022-12-07T23:12:03;2.10;99.90
19037;DHT22;9651;49.138;8.900;2022-12-07T23:16:22;2.10;99.90
19037;DHT22;9651;49.138;8.900;2022-12-07T23:20:24;2.10;99.90
19037;DHT22;9651;49.138;8.900;2022-12-07T23:24:26;2.10;99.90
19037;DHT22;9651;49.138;8.900;2022-12-07T23:28:29;2.10;99.90
19037;DHT22;9651;49.138;8.900;2022-12-07T23:32:31;2.00;99.90
19037;DHT22;9651;49.138;8.900;2022-12-07T23:36:33;2.00;99.90
19037;DHT22;9651;49.138;8.900;2022-12-07T23:40:35;2.00;99.90
19037;DHT22;9651;49.138;8.900;2022-12-07T23:44:38;2.00;99.90
19037;DHT22;9651;49.138;8.900;2022-12-07T23:48:41;2.00;99.90
19037;DHT22;9651;49.138;8.900;2022-12-07T23:52:43;2.00;99.90
19037;DHT22;9651;49.138;8.900;2022-12-07T23:56:45;2.00;99.90
